Les instructeurs




Michel Ricotier - Ancien Pilote de ligne à Air France, 37 ans de compagnie. Copilote sur Caravelle, Boeing 707 et Boeing 747. Commandant à la Postale de nuit sur Fokker 27. L'ancienneté aidant, retour sur son terrain de jeu favori le long courrier, comme Commandant de bord Boeing 747-200, le classique le vrai 747 ! 20000 heures de vol plus tard, 2007 the End.
Instructeur bénévole à l'aéroclub et Examinateur, il concilie le plaisir de voler et le désir de partager son expérience.

Webcam :

Nuit aéronautique

21 Jan 2019

Heure locale,
pour LFDL uniquement.

Lever du soleil aéronautique :08:07
Lever du soleil :08:37
Coucher du soleil :17:44
Coucher du soleil aéronautique :18:14

Metar

LFBI :
2019/01/21 01:30
LFBI 210130Z AUTO 36008KT 9999 OVC016 04/01 Q1020 TEMPO OVC005
LFBI :
Poitiers, France (LFBI) 46-35N 000-19E 120M
Jan 20, 2019 - 08:30 PM EST / 2019.01.21 0130 UTC
Wind: from the N (360 degrees) at 9 MPH (8 KT):0
Visibility: greater than 7 mile(s):0
Sky conditions: overcast
Temperature: 39 F (4 C)
Dew Point: 33 F (1 C)
Relative Humidity: 80%
Pressure (altimeter): 30.12 in. Hg (1020 hPa)
ob: LFBI 210130Z AUTO 36008KT 9999 OVC016 04/01 Q1020 TEMPO OVC005
cycle: 1

Afficher le metar d'une autre station :
Code OACI :

Aéroclub de Loudun


Bellevue
86200 Loudun


Contacter Michel Richez (président)

  • Mail:michel.richez@free.fr
  • Tel:09-50-38-02-06
  • Mobile:06-52-73-09-01



agrandir le plan

Newsletter

Mon e-mail :